Time;durP1;ratioP1;P1;durP2;ratioP2;P2;SDS_P1;SDS_P2;PMS_P1;PMS_P2;Temp;Humidity;BMP_temperature;BMP_pressure;BME280_temperature;BME280_humidity;BME280_pressure;Samples;Min_cycle;Max_cycle;Signal;HPM_P1;HPM_P2
2022/07/11 00:01:42;;;;;;;2.25;1.20;;;19.40;99.90;;;;;;5028259;28;20033;-35
2022/07/11 00:04:07;;;;;;;2.78;1.50;;;19.40;99.90;;;;;;5027610;28;20536;-36
2022/07/11 00:06:33;;;;;;;2.53;1.40;;;19.40;99.90;;;;;;5028448;28;20387;-35
2022/07/11 00:08:58;;;;;;;3.70;1.40;;;19.40;99.90;;;;;;5027842;28;20473;-35
2022/07/11 00:11:24;;;;;;;3.67;1.48;;;19.30;99.90;;;;;;5027520;28;20025;-35
2022/07/11 00:13:50;;;;;;;2.20;1.30;;;19.40;99.90;;;;;;5028313;28;20029;-36
2022/07/11 00:16:16;;;;;;;4.88;1.73;;;19.40;99.90;;;;;;5027509;28;20029;-35
2022/07/11 00:18:42;;;;;;;3.75;1.20;;;19.40;99.90;;;;;;5027146;28;20022;-35
2022/07/11 00:21:07;;;;;;;3.97;1.70;;;19.30;99.90;;;;;;5028263;28;20017;-34
2022/07/11 00:23:33;;;;;;;3.80;1.45;;;19.30;99.90;;;;;;5027279;28;20025;-34
2022/07/11 00:25:58;;;;;;;3.88;2.00;;;19.30;99.90;;;;;;5027411;28;20101;-35
2022/07/11 00:28:24;;;;;;;3.75;1.90;;;19.30;99.90;;;;;;5027493;28;20071;-36
2022/07/11 00:30:51;;;;;;;4.28;1.40;;;19.30;99.90;;;;;;5027196;28;20037;-34
2022/07/11 00:33:16;;;;;;;1.48;1.20;;;19.30;99.90;;;;;;5027072;28;20507;-34
2022/07/11 00:35:42;;;;;;;3.38;1.33;;;19.30;99.90;;;;;;5027652;28;20026;-35
2022/07/11 00:38:07;;;;;;;1.92;1.27;;;19.30;99.90;;;;;;5027094;28;20029;-34
2022/07/11 00:40:33;;;;;;;5.75;1.70;;;19.30;99.90;;;;;;5026394;28;20025;-34
2022/07/11 00:42:58;;;;;;;2.58;1.50;;;19.30;99.90;;;;;;5027779;28;20306;-33
2022/07/11 00:45:24;;;;;;;4.90;1.67;;;19.20;99.90;;;;;;5027293;28;20025;-34
2022/07/11 00:47:49;;;;;;;3.72;1.63;;;19.20;99.90;;;;;;5026943;28;20025;-34
2022/07/11 00:50:16;;;;;;;3.92;1.48;;;19.10;99.90;;;;;;5026980;28;20439;-33
2022/07/11 00:52:41;;;;;;;2.72;1.40;;;19.10;99.90;;;;;;5026860;28;20056;-34
2022/07/11 00:55:09;;;;;;;3.00;1.25;;;19.00;99.90;;;;;;5026902;28;20485;-33
2022/07/11 00:57:36;;;;;;;2.17;1.13;;;19.00;99.90;;;;;;5007074;28;20128;-35
2022/07/11 01:00:03;;;;;;;2.20;1.15;;;19.00;99.90;;;;;;5010498;28;20022;-34
2022/07/11 01:02:28;;;;;;;2.35;1.00;;;19.00;99.90;;;;;;5026477;28;20030;-34
2022/07/11 01:04:54;;;;;;;2.50;0.90;;;19.00;99.90;;;;;;5026433;28;20706;-33
2022/07/11 01:07:19;;;;;;;2.22;1.05;;;19.00;99.90;;;;;;5026635;28;20511;-34
2022/07/11 01:09:45;;;;;;;2.78;1.13;;;19.00;99.90;;;;;;5027013;28;20060;-34
2022/07/11 01:12:11;;;;;;;3.03;1.13;;;19.00;99.90;;;;;;5027108;28;20132;-34
2022/07/11 01:14:36;;;;;;;2.75;1.10;;;19.00;99.90;;;;;;5026102;28;20095;-34
2022/07/11 01:17:03;;;;;;;1.83;1.10;;;19.00;99.90;;;;;;5027306;28;20160;-34
2022/07/11 01:19:29;;;;;;;2.70;1.05;;;19.00;99.90;;;;;;5027212;28;20146;-35
2022/07/11 01:21:57;;;;;;;2.80;1.20;;;19.00;99.90;;;;;;5027165;28;20611;-35
2022/07/11 01:24:24;;;;;;;3.00;1.45;;;19.10;99.90;;;;;;5027451;28;20362;-35
2022/07/11 01:26:51;;;;;;;2.92;1.10;;;19.10;99.90;;;;;;5026805;28;20028;-33
2022/07/11 01:29:17;;;;;;;1.45;0.90;;;19.00;99.90;;;;;;5025323;28;20054;-34
2022/07/11 01:31:43;;;;;;;1.98;1.02;;;19.00;99.90;;;;;;5026462;28;20040;-35
2022/07/11 01:34:10;;;;;;;1.70;0.90;;;19.00;99.90;;;;;;5027123;28;20025;-34
2022/07/11 01:36:36;;;;;;;1.35;0.70;;;19.10;99.90;;;;;;5025872;28;20021;-35
2022/07/11 01:39:01;;;;;;;2.90;1.00;;;19.00;99.90;;;;;;5027071;28;20393;-34
2022/07/11 01:41:27;;;;;;;4.35;1.33;;;19.10;99.90;;;;;;5025855;28;20018;-35
2022/07/11 01:43:53;;;;;;;1.17;0.88;;;19.00;99.90;;;;;;5026221;28;20042;-35
2022/07/11 01:46:19;;;;;;;1.75;0.90;;;19.00;99.90;;;;;;5026034;28;20030;-34
2022/07/11 01:48:44;;;;;;;1.77;0.93;;;19.00;99.90;;;;;;5026134;28;20499;-34
2022/07/11 01:51:10;;;;;;;2.58;1.15;;;19.00;99.90;;;;;;5026313;28;20025;-34
2022/07/11 01:53:36;;;;;;;1.63;0.90;;;19.00;99.90;;;;;;5024360;28;20052;-35
2022/07/11 01:56:01;;;;;;;2.22;0.90;;;19.00;99.90;;;;;;5013947;28;20145;-35
2022/07/11 01:58:30;;;;;;;0.93;0.70;;;19.00;99.90;;;;;;5021810;28;20455;-35
2022/07/11 02:00:57;;;;;;;1.65;0.90;;;19.00;99.90;;;;;;5026042;28;20377;-34
2022/07/11 02:03:22;;;;;;;0.80;0.80;;;19.00;99.90;;;;;;5025250;28;20041;-34
2022/07/11 02:05:48;;;;;;;1.83;1.00;;;19.00;99.90;;;;;;5026353;28;20056;-34
2022/07/11 02:08:13;;;;;;;1.05;0.82;;;19.00;99.90;;;;;;5025299;28;20021;-36
2022/07/11 02:10:45;;;;;;;1.60;0.90;;;19.00;99.90;;;;;;5025822;28;20021;-34
2022/07/11 02:13:12;;;;;;;1.40;0.65;;;19.00;99.90;;;;;;5025744;28;20362;-34
2022/07/11 02:15:39;;;;;;;3.25;0.77;;;18.90;99.90;;;;;;5026080;28;20423;-37
2022/07/11 02:18:05;;;;;;;1.55;1.00;;;19.00;99.90;;;;;;5025857;28;20523;-35
2022/07/11 02:20:30;;;;;;;2.17;1.10;;;19.00;99.90;;;;;;5026019;28;20029;-35
2022/07/11 02:22:58;;;;;;;1.20;0.77;;;19.00;99.90;;;;;;5025784;28;20028;-36
2022/07/11 02:25:24;;;;;;;2.22;1.10;;;19.00;99.90;;;;;;5025277;28;20025;-35
2022/07/11 02:27:50;;;;;;;1.70;1.13;;;19.00;99.90;;;;;;5026076;28;20026;-34
2022/07/11 02:30:15;;;;;;;2.35;0.95;;;18.90;99.90;;;;;;5024728;28;20481;-35
2022/07/11 02:32:41;;;;;;;1.60;0.85;;;18.90;99.90;;;;;;5025345;28;20032;-35
2022/07/11 02:35:07;;;;;;;1.25;0.80;;;19.00;99.90;;;;;;5025538;28;20025;-36
2022/07/11 02:37:32;;;;;;;1.63;0.60;;;19.00;99.90;;;;;;5025362;28;20103;-35
2022/07/11 02:39:58;;;;;;;1.65;1.00;;;19.00;99.90;;;;;;5025245;28;20419;-35
2022/07/11 02:42:23;;;;;;;1.10;0.80;;;18.90;99.90;;;;;;5024877;28;20029;-35
2022/07/11 02:44:49;;;;;;;1.98;0.80;;;18.90;99.90;;;;;;5025616;28;20476;-35
2022/07/11 02:47:15;;;;;;;1.67;0.85;;;19.00;99.90;;;;;;5025430;28;20505;-35
2022/07/11 02:49:40;;;;;;;0.80;0.60;;;19.00;99.90;;;;;;5025041;28;20400;-35
2022/07/11 02:52:06;;;;;;;1.10;0.73;;;19.00;99.90;;;;;;5026167;28;20100;-34
2022/07/11 02:54:32;;;;;;;2.67;0.98;;;19.00;99.90;;;;;;5024398;28;20386;-34
2022/07/11 02:56:58;;;;;;;5.18;0.95;;;19.00;99.90;;;;;;5025542;28;20021;-35
2022/07/11 02:59:23;;;;;;;2.38;0.90;;;19.10;99.90;;;;;;5024858;28;20472;-34
2022/07/11 03:01:50;;;;;;;2.05;0.82;;;19.10;99.90;;;;;;5028760;28;20024;-34
2022/07/11 03:04:15;;;;;;;1.67;0.85;;;19.10;99.90;;;;;;5028706;28;20128;-34
2022/07/11 03:06:41;;;;;;;3.53;1.27;;;19.00;99.90;;;;;;5028159;28;20124;-34
2022/07/11 03:09:09;;;;;;;6.07;1.48;;;19.00;99.90;;;;;;5029931;28;20045;-35
2022/07/11 03:11:35;;;;;;;2.83;1.02;;;18.90;99.90;;;;;;5014034;28;20017;-36
2022/07/11 03:14:01;;;;;;;3.38;0.90;;;18.80;99.90;;;;;;5029050;28;20481;-35
2022/07/11 03:16:28;;;;;;;2.80;0.95;;;18.90;99.90;;;;;;5029213;28;20040;-35
2022/07/11 03:18:54;;;;;;;2.05;0.80;;;18.80;99.90;;;;;;5028967;28;20101;-35
2022/07/11 03:21:20;;;;;;;4.03;1.25;;;18.70;99.90;;;;;;5028206;28;20536;-35
2022/07/11 03:23:45;;;;;;;2.58;1.00;;;18.70;99.90;;;;;;5029293;28;20075;-35
2022/07/11 03:26:11;;;;;;;3.10;0.90;;;18.60;99.90;;;;;;5029083;28;20025;-34
2022/07/11 03:28:36;;;;;;;2.08;1.10;;;18.50;99.90;;;;;;5027889;28;20083;-36
2022/07/11 03:31:02;;;;;;;3.22;0.80;;;18.50;99.90;;;;;;5028707;28;20392;-35
2022/07/11 03:33:28;;;;;;;3.90;1.10;;;18.50;99.90;;;;;;5029016;28;20064;-35
2022/07/11 03:35:54;;;;;;;4.43;1.00;;;18.50;99.90;;;;;;5028606;28;20104;-35
2022/07/11 03:38:20;;;;;;;4.15;1.00;;;18.60;99.90;;;;;;5028708;28;20077;-33
2022/07/11 03:40:47;;;;;;;1.77;0.98;;;18.60;99.90;;;;;;5029022;28;20102;-34
2022/07/11 03:43:12;;;;;;;2.53;0.90;;;18.60;99.90;;;;;;5028165;28;20388;-34
2022/07/11 03:45:38;;;;;;;1.98;0.93;;;18.70;99.90;;;;;;5028567;28;20017;-34
2022/07/11 03:48:04;;;;;;;3.60;0.80;;;18.70;99.90;;;;;;5028738;28;20021;-34
2022/07/11 03:50:30;;;;;;;2.05;0.95;;;18.70;99.90;;;;;;5028014;28;20120;-34
2022/07/11 03:52:58;;;;;;;1.25;0.90;;;18.60;99.90;;;;;;5028181;28;20549;-35
2022/07/11 03:55:24;;;;;;;3.70;1.05;;;18.60;99.90;;;;;;5027832;28;20132;-34
2022/07/11 03:57:50;;;;;;;3.25;1.08;;;18.70;99.90;;;;;;5028222;28;20041;-34
2022/07/11 04:00:16;;;;;;;3.15;0.80;;;18.70;99.90;;;;;;5028336;28;20045;-35
2022/07/11 04:02:42;;;;;;;3.20;0.98;;;18.60;99.90;;;;;;5027912;28;20032;-35
2022/07/11 04:05:08;;;;;;;4.05;1.55;;;18.60;99.90;;;;;;5028696;28;20120;-35
2022/07/11 04:07:34;;;;;;;4.90;1.20;;;18.60;99.90;;;;;;5026894;28;20033;-35
2022/07/11 04:09:59;;;;;;;3.63;1.05;;;18.60;99.90;;;;;;5028673;28;20044;-35
2022/07/11 04:12:25;;;;;;;1.17;0.85;;;18.60;99.90;;;;;;5026662;28;20042;-35
2022/07/11 04:14:50;;;;;;;0.88;0.85;;;18.60;99.90;;;;;;5028618;28;20021;-35
2022/07/11 04:17:16;;;;;;;2.33;1.00;;;18.60;99.90;;;;;;5027279;28;20048;-33
2022/07/11 04:19:45;;;;;;;1.25;0.90;;;18.60;99.90;;;;;;5028084;28;20356;-34
2022/07/11 04:22:11;;;;;;;2.25;1.50;;;18.60;99.90;;;;;;5028229;28;20021;-34
2022/07/11 04:24:37;;;;;;;2.58;1.02;;;18.50;99.90;;;;;;5026930;28;20034;-34
2022/07/11 04:27:03;;;;;;;2.50;1.08;;;18.50;99.90;;;;;;5028601;28;20041;-33
2022/07/11 04:29:29;;;;;;;4.28;1.20;;;18.50;99.90;;;;;;5026931;28;20095;-33
2022/07/11 04:31:55;;;;;;;4.20;1.38;;;18.50;99.90;;;;;;5027627;28;20021;-34
2022/07/11 04:34:20;;;;;;;2.05;0.90;;;18.50;99.90;;;;;;5012808;28;20025;-35
2022/07/11 04:36:46;;;;;;;4.57;1.02;;;18.40;99.90;;;;;;5027756;28;20026;-33
2022/07/11 04:39:12;;;;;;;1.10;1.00;;;18.40;99.90;;;;;;5027288;28;20464;-35
2022/07/11 04:41:38;;;;;;;1.95;0.88;;;18.50;99.90;;;;;;5027519;28;20109;-34
2022/07/11 04:44:04;;;;;;;2.83;1.05;;;18.50;99.90;;;;;;5027364;28;20124;-35
2022/07/11 04:46:31;;;;;;;2.00;0.90;;;18.50;99.90;;;;;;5027024;28;20120;-36
2022/07/11 04:48:56;;;;;;;2.40;1.20;;;18.50;99.90;;;;;;5027187;28;20034;-36
2022/07/11 04:51:23;;;;;;;2.05;1.00;;;18.50;99.90;;;;;;5027855;28;20035;-35
2022/07/11 04:53:49;;;;;;;3.85;1.20;;;18.50;99.90;;;;;;5026967;28;20025;-35
2022/07/11 04:56:15;;;;;;;2.83;1.15;;;18.50;99.90;;;;;;5027241;28;20469;-35
2022/07/11 04:58:40;;;;;;;1.83;1.20;;;18.50;99.90;;;;;;5026879;28;20017;-35
2022/07/11 05:01:06;;;;;;;3.25;1.20;;;18.50;99.90;;;;;;5027402;28;20473;-36
2022/07/11 05:03:34;;;;;;;1.35;1.10;;;18.50;99.90;;;;;;5026336;28;20053;-35
2022/07/11 05:06:00;;;;;;;3.45;1.10;;;18.60;99.90;;;;;;5027273;28;20025;-35
2022/07/11 05:08:26;;;;;;;2.35;1.25;;;18.60;99.90;;;;;;5025749;28;20037;-34
2022/07/11 05:10:52;;;;;;;1.10;1.00;;;18.60;99.90;;;;;;5026784;28;20348;-34
2022/07/11 05:13:17;;;;;;;2.05;0.80;;;18.70;99.90;;;;;;5026474;28;20131;-35
2022/07/11 05:15:44;;;;;;;1.40;0.90;;;18.70;99.90;;;;;;5026880;28;20327;-35
2022/07/11 05:18:10;;;;;;;0.80;0.70;;;18.70;99.90;;;;;;5027022;28;20565;-34
2022/07/11 05:20:36;;;;;;;1.20;0.85;;;18.60;99.90;;;;;;5025268;28;20025;-35
2022/07/11 05:23:01;;;;;;;0.85;0.77;;;18.70;99.90;;;;;;5026875;28;20030;-36
2022/07/11 05:25:27;;;;;;;0.73;0.60;;;18.70;99.90;;;;;;5026153;28;20440;-34
2022/07/11 05:27:52;;;;;;;1.10;0.77;;;18.70;99.90;;;;;;5026689;28;20432;-36
2022/07/11 05:30:18;;;;;;;0.63;0.63;;;18.70;99.90;;;;;;5026739;28;20128;-33
2022/07/11 05:32:44;;;;;;;1.17;0.85;;;18.70;99.90;;;;;;5026362;28;20068;-34
2022/07/11 05:35:10;;;;;;;1.52;0.75;;;18.70;99.90;;;;;;5025974;28;20056;-34
2022/07/11 05:37:36;;;;;;;1.67;0.70;;;18.70;99.90;;;;;;5024924;28;20038;-34
2022/07/11 05:40:02;;;;;;;0.75;0.70;;;18.70;99.90;;;;;;5010060;28;20381;-36
2022/07/11 05:42:28;;;;;;;0.50;0.50;;;18.70;99.90;;;;;;5012599;28;20533;-36
2022/07/11 05:44:54;;;;;;;0.85;0.80;;;18.70;99.90;;;;;;5005111;28;20037;-35
2022/07/11 05:47:20;;;;;;;0.80;0.80;;;18.70;99.90;;;;;;5015734;28;20026;-35
2022/07/11 05:49:46;;;;;;;0.93;0.70;;;18.60;99.90;;;;;;5016353;28;20318;-35
2022/07/11 05:52:11;;;;;;;0.90;0.57;;;18.60;99.90;;;;;;5014627;28;20072;-35
2022/07/11 05:54:37;;;;;;;0.90;0.60;;;18.70;99.90;;;;;;5023633;28;20033;-35
2022/07/11 05:57:02;;;;;;;0.73;0.55;;;18.70;99.90;;;;;;5014351;28;20063;-35
2022/07/11 05:59:28;;;;;;;0.60;0.60;;;18.70;99.90;;;;;;5024560;28;20528;-34
2022/07/11 06:01:54;;;;;;;0.85;0.50;;;18.70;99.90;;;;;;5013214;28;20560;-35
2022/07/11 06:04:20;;;;;;;0.50;0.50;;;18.80;99.90;;;;;;5024699;28;20057;-35
2022/07/11 06:06:45;;;;;;;0.60;0.60;;;18.70;99.90;;;;;;5019258;28;20195;-34
2022/07/11 06:09:11;;;;;;;0.52;0.52;;;18.80;99.90;;;;;;5024914;28;20033;-39
2022/07/11 06:11:37;;;;;;;0.50;0.50;;;18.80;99.90;;;;;;5014579;28;20029;-35
2022/07/11 06:14:03;;;;;;;0.50;0.50;;;18.80;99.90;;;;;;5021827;28;20026;-35
2022/07/11 06:16:28;;;;;;;0.50;0.50;;;18.80;99.90;;;;;;5017360;28;20026;-35
2022/07/11 06:18:54;;;;;;;0.55;0.55;;;18.80;99.90;;;;;;5020041;28;20489;-36
2022/07/11 06:21:22;;;;;;;0.65;0.50;;;18.90;99.90;;;;;;5020881;28;20544;-34
2022/07/11 06:23:48;;;;;;;0.43;0.43;;;18.90;99.90;;;;;;5016908;28;20832;-34
2022/07/11 06:26:15;;;;;;;0.43;0.43;;;18.90;99.90;;;;;;5023416;28;20021;-36
2022/07/11 06:28:41;;;;;;;0.45;0.45;;;19.00;99.90;;;;;;5007646;28;20366;-36
2022/07/11 06:31:10;;;;;;;0.35;0.30;;;19.00;99.90;;;;;;5006660;28;20449;-34
2022/07/11 06:33:35;;;;;;;0.30;0.30;;;19.10;99.90;;;;;;5016036;28;20623;-35
2022/07/11 06:36:05;;;;;;;0.40;0.40;;;19.10;99.90;;;;;;5006250;28;20112;-36
2022/07/11 06:38:31;;;;;;;0.30;0.30;;;19.20;99.90;;;;;;5021433;28;20030;-35
2022/07/11 06:40:57;;;;;;;0.52;0.52;;;19.20;99.90;;;;;;5025618;28;20041;-35
2022/07/11 06:43:23;;;;;;;0.40;0.40;;;19.30;99.90;;;;;;5025313;28;20537;-35
2022/07/11 06:45:49;;;;;;;0.50;0.50;;;19.30;99.90;;;;;;5024754;28;20393;-35
2022/07/11 06:48:14;;;;;;;0.50;0.40;;;19.40;99.90;;;;;;5024604;28;20041;-34
2022/07/11 06:50:40;;;;;;;0.47;0.47;;;19.40;99.90;;;;;;5025797;28;20052;-35
2022/07/11 06:53:06;;;;;;;0.60;0.60;;;19.50;99.90;;;;;;5025199;28;20485;-35
2022/07/11 06:55:32;;;;;;;0.40;0.40;;;19.50;99.90;;;;;;5025094;28;20026;-37
2022/07/11 06:57:58;;;;;;;0.40;0.40;;;19.60;99.90;;;;;;5025155;28;20029;-35
2022/07/11 07:00:24;;;;;;;0.50;0.50;;;19.60;99.90;;;;;;5025300;28;20041;-35
2022/07/11 07:02:49;;;;;;;0.95;0.65;;;19.70;99.90;;;;;;5024827;28;20013;-34
2022/07/11 07:05:15;;;;;;;0.52;0.50;;;19.80;99.90;;;;;;5025622;28;20068;-35
2022/07/11 07:07:40;;;;;;;0.50;0.50;;;19.90;99.90;;;;;;5024456;28;20548;-35
2022/07/11 07:10:06;;;;;;;0.68;0.50;;;19.90;99.90;;;;;;5024900;28;20038;-36
2022/07/11 07:12:32;;;;;;;0.80;0.80;;;19.90;99.90;;;;;;5024972;28;20464;-36
2022/07/11 07:15:00;;;;;;;0.55;0.50;;;19.80;99.90;;;;;;5024867;28;20017;-36
2022/07/11 07:17:25;;;;;;;0.80;0.50;;;19.70;99.90;;;;;;5024563;28;20028;-34
2022/07/11 07:19:51;;;;;;;0.43;0.43;;;19.70;99.90;;;;;;5025159;28;20029;-35
2022/07/11 07:22:16;;;;;;;0.60;0.60;;;19.60;99.90;;;;;;5025241;28;20045;-36
2022/07/11 07:24:43;;;;;;;0.60;0.60;;;19.50;99.90;;;;;;5024779;28;20480;-34
2022/07/11 07:27:09;;;;;;;0.50;0.50;;;19.50;99.90;;;;;;5025293;28;20048;-35
2022/07/11 07:29:35;;;;;;;0.43;0.43;;;19.50;99.90;;;;;;5024087;28;20065;-35
2022/07/11 07:32:00;;;;;;;0.40;0.40;;;19.60;99.90;;;;;;5025354;28;20079;-36
2022/07/11 07:34:26;;;;;;;0.47;0.47;;;19.70;99.90;;;;;;5013536;28;20033;-35
2022/07/11 07:36:52;;;;;;;0.45;0.40;;;19.90;99.90;;;;;;5022333;28;20025;-34
2022/07/11 07:39:18;;;;;;;0.40;0.40;;;20.00;99.90;;;;;;5017799;28;20033;-36
2022/07/11 07:41:43;;;;;;;0.43;0.35;;;20.20;99.90;;;;;;5019421;28;20163;-34
2022/07/11 07:44:09;;;;;;;0.40;0.40;;;20.30;99.90;;;;;;5020153;28;20028;-35
2022/07/11 07:46:34;;;;;;;0.30;0.30;;;20.40;99.90;;;;;;5017162;28;20030;-35
2022/07/11 07:49:00;;;;;;;0.40;0.40;;;20.50;99.90;;;;;;5026273;28;20211;-35
2022/07/11 07:51:26;;;;;;;0.60;0.40;;;20.50;99.90;;;;;;5017813;28;20025;-35
2022/07/11 07:53:52;;;;;;;0.50;0.50;;;20.60;99.90;;;;;;5027622;28;20030;-36
2022/07/11 07:56:17;;;;;;;0.30;0.30;;;20.50;99.90;;;;;;5016687;28;20073;-35
2022/07/11 07:58:43;;;;;;;0.98;0.70;;;20.40;99.90;;;;;;5027335;28;20542;-35
2022/07/11 08:03:54;;;;;;;0.50;0.50;;;20.40;99.90;;;;;;5012503;28;20413;-35
2022/07/11 08:06:20;;;;;;;0.30;0.30;;;20.60;99.90;;;;;;5021251;28;20114;-35
2022/07/11 08:08:46;;;;;;;0.40;0.40;;;20.60;99.90;;;;;;5028683;28;20029;-36
2022/07/11 08:11:12;;;;;;;0.30;0.30;;;20.50;99.90;;;;;;5015619;28;20103;-36
2022/07/11 08:13:38;;;;;;;0.52;0.50;;;20.40;99.90;;;;;;5027647;28;20033;-36
2022/07/11 08:16:05;;;;;;;0.35;0.35;;;20.30;99.90;;;;;;5015773;28;20041;-36
2022/07/11 08:18:36;;;;;;;0.50;0.50;;;20.20;99.90;;;;;;5025393;28;20034;-35
2022/07/11 08:21:02;;;;;;;0.63;0.55;;;20.10;99.90;;;;;;5017682;28;20458;-35
2022/07/11 08:23:31;;;;;;;1.10;0.65;;;19.90;99.90;;;;;;5024145;28;20021;-35
2022/07/11 08:25:57;;;;;;;0.50;0.50;;;19.90;99.90;;;;;;5019360;28;20084;-35
2022/07/11 08:28:23;;;;;;;0.85;0.70;;;19.90;99.90;;;;;;5023429;28;20470;-35
2022/07/11 08:30:48;;;;;;;0.70;0.70;;;19.90;99.90;;;;;;5022136;28;20022;-33
2022/07/11 08:33:14;;;;;;;0.80;0.68;;;20.00;99.90;;;;;;5020401;28;20112;-34
2022/07/11 08:35:39;;;;;;;0.50;0.50;;;20.10;99.90;;;;;;5026085;28;20026;-35
2022/07/11 08:38:05;;;;;;;0.40;0.40;;;20.30;99.90;;;;;;5016902;28;20065;-33
2022/07/11 08:40:30;;;;;;;0.65;0.55;;;20.40;99.90;;;;;;5007881;28;20033;-35
2022/07/11 08:43:01;;;;;;;0.57;0.57;;;20.40;99.90;;;;;;5019342;28;20021;-35
2022/07/11 08:45:31;;;;;;;0.73;0.68;;;20.30;99.90;;;;;;5022961;28;20025;-36
2022/07/11 08:47:58;;;;;;;0.75;0.70;;;20.20;99.90;;;;;;5015807;28;20029;-35
2022/07/11 08:50:26;;;;;;;0.63;0.63;;;20.10;99.90;;;;;;5027140;28;20037;-35
2022/07/11 08:52:54;;;;;;;0.73;0.73;;;20.00;99.90;;;;;;5025635;28;20075;-36
2022/07/11 08:55:20;;;;;;;0.50;0.50;;;19.90;99.90;;;;;;5026811;28;20159;-36
2022/07/11 08:57:46;;;;;;;0.75;0.50;;;19.90;99.90;;;;;;5026320;28;20038;-36
2022/07/11 09:00:13;;;;;;;0.40;0.40;;;19.90;99.90;;;;;;5026512;28;20026;-34
2022/07/11 09:02:41;;;;;;;0.65;0.60;;;19.90;99.90;;;;;;5026244;28;20479;-35
2022/07/11 09:05:07;;;;;;;1.27;0.60;;;19.90;99.90;;;;;;5027295;28;20029;-35
2022/07/11 09:07:34;;;;;;;0.50;0.50;;;19.80;99.90;;;;;;5026480;28;20065;-35
2022/07/11 09:09:59;;;;;;;0.80;0.70;;;19.80;99.90;;;;;;5007494;28;20030;-34
2022/07/11 09:12:25;;;;;;;0.47;0.47;;;19.90;99.90;;;;;;5017042;28;20483;-37
2022/07/11 09:14:54;;;;;;;0.55;0.50;;;19.90;99.90;;;;;;5027484;28;20028;-36
2022/07/11 09:17:32;;;;;;;0.57;0.50;;;20.10;99.90;;;;;;5026519;28;20110;-36
2022/07/11 09:19:58;;;;;;;0.45;0.45;;;20.30;99.90;;;;;;5025854;28;20083;-36
2022/07/11 09:25:20;;;;;;;0.40;0.40;;;20.50;99.90;;;;;;5027411;28;20095;-36
2022/07/11 09:27:55;;;;;;;0.60;0.60;;;20.60;99.90;;;;;;5025655;28;20021;-37
2022/07/11 09:30:35;;;;;;;0.73;0.60;;;20.60;99.90;;;;;;5026242;28;20041;-36
2022/07/11 09:33:06;;;;;;;1.20;0.65;;;20.50;99.90;;;;;;5026850;28;20021;-34
2022/07/11 09:35:41;;;;;;;0.70;0.70;;;20.60;99.90;;;;;;5025886;28;20111;-36
2022/07/11 09:38:09;;;;;;;0.80;0.80;;;20.50;99.90;;;;;;5025701;28;20545;-36
2022/07/11 09:40:36;;;;;;;0.60;0.60;;;20.40;99.90;;;;;;5025738;28;20109;-35
2022/07/11 09:43:03;;;;;;;0.68;0.68;;;20.40;99.90;;;;;;5025924;28;20096;-34
2022/07/11 09:45:36;;;;;;;1.30;1.20;;;20.40;99.90;;;;;;5025711;28;20408;-34
2022/07/11 09:48:10;;;;;;;0.93;0.80;;;20.30;99.90;;;;;;5026295;28;20021;-36
2022/07/11 09:50:36;;;;;;;0.60;0.60;;;20.10;99.90;;;;;;5025463;28;20041;-34
2022/07/11 09:53:08;;;;;;;0.68;0.60;;;20.00;99.90;;;;;;5026115;28;20024;-35
2022/07/11 09:55:36;;;;;;;0.57;0.57;;;20.10;99.90;;;;;;5014977;28;20470;-34
2022/07/11 09:58:10;;;;;;;0.40;0.40;;;20.10;99.90;;;;;;5025693;28;20032;-36
2022/07/11 10:00:38;;;;;;;0.75;0.60;;;20.30;99.90;;;;;;5025502;28;20060;-35
2022/07/11 10:03:05;;;;;;;0.63;0.60;;;20.30;99.90;;;;;;5025996;28;20037;-35
2022/07/11 10:05:31;;;;;;;2.33;0.60;;;20.40;99.90;;;;;;5025531;28;20427;-35
2022/07/11 10:07:58;;;;;;;0.50;0.50;;;20.40;99.90;;;;;;5025853;28;20473;-36
2022/07/11 10:10:26;;;;;;;0.85;0.63;;;20.60;99.90;;;;;;5024405;28;20041;-36
2022/07/11 10:12:52;;;;;;;0.50;0.50;;;20.80;99.90;;;;;;5026350;28;20029;-36
2022/07/11 10:15:44;;;;;;;0.80;0.50;;;20.90;99.90;;;;;;5025635;28;20025;-36
2022/07/11 10:18:24;;;;;;;0.82;0.57;;;21.10;99.90;;;;;;5025898;28;20025;-35
2022/07/11 10:20:59;;;;;;;0.77;0.70;;;21.10;99.90;;;;;;5014327;28;20380;-35
2022/07/11 10:23:33;;;;;;;0.85;0.57;;;21.10;99.90;;;;;;5024605;28;20037;-35
2022/07/11 10:26:07;;;;;;;0.70;0.70;;;20.90;99.90;;;;;;5024270;28;20017;-35
2022/07/11 10:28:46;;;;;;;0.57;0.55;;;20.60;99.90;;;;;;5011041;28;20022;-34
2022/07/11 10:31:19;;;;;;;0.80;0.60;;;20.40;99.90;;;;;;5024869;28;20118;-35
2022/07/11 10:34:21;;;;;;;0.40;0.40;;;20.40;99.90;;;;;;5025716;28;20026;-35
2022/07/11 10:36:46;;;;;;;0.50;0.50;;;20.40;99.90;;;;;;5025219;28;20034;-34
2022/07/11 10:39:19;;;;;;;0.60;0.60;;;20.50;99.90;;;;;;5025375;28;20064;-34
2022/07/11 10:41:45;;;;;;;;;;;20.50;99.90;;;;;;5025538;28;20024;-36
2022/07/11 10:44:11;;;;;;;0.32;0.30;;;20.60;99.90;;;;;;5024782;28;20287;-35
2022/07/11 10:46:37;;;;;;;0.35;0.30;;;20.70;99.90;;;;;;5024953;28;20030;-35
2022/07/11 10:49:17;;;;;;;0.40;0.40;;;20.90;99.90;;;;;;5025920;28;20033;-33
2022/07/11 10:52:06;;;;;;;0.50;0.50;;;21.10;99.90;;;;;;5025199;28;20021;-35
2022/07/11 10:55:17;;;;;;;0.77;0.60;;;21.40;99.90;;;;;;5025036;28;20112;-33
2022/07/11 10:58:13;;;;;;;0.40;0.40;;;21.50;99.90;;;;;;5012418;28;20536;-34
2022/07/11 11:00:39;;;;;;;0.47;0.47;;;21.60;99.90;;;;;;5025181;28;20028;-35
2022/07/11 11:03:06;;;;;;;0.30;0.30;;;21.60;99.90;;;;;;5025791;28;20053;-35
2022/07/11 11:05:54;;;;;;;0.85;0.57;;;21.70;99.90;;;;;;5024500;28;20026;-35
2022/07/11 11:08:32;;;;;;;0.50;0.50;;;21.80;99.90;;;;;;5025354;28;20026;-35
2022/07/11 11:10:58;;;;;;;0.43;0.43;;;22.00;99.90;;;;;;5025720;28;20051;-35
2022/07/11 11:13:24;;;;;;;0.52;0.40;;;22.20;99.90;;;;;;5025385;28;20116;-36
2022/07/11 11:15:57;;;;;;;0.60;0.60;;;22.20;99.90;;;;;;5025238;28;20100;-34
2022/07/11 11:18:23;;;;;;;1.27;0.40;;;22.30;99.90;;;;;;5015662;28;20136;-34
2022/07/11 11:21:00;;;;;;;1.13;0.63;;;22.40;99.90;;;;;;5025487;28;20121;-35
2022/07/11 11:24:02;;;;;;;0.73;0.50;;;22.50;99.90;;;;;;5017594;28;20432;-36
2022/07/11 11:26:43;;;;;;;1.17;0.50;;;22.50;99.90;;;;;;5027937;28;20131;-37
2022/07/11 11:29:09;;;;;;;0.87;0.43;;;22.50;99.90;;;;;;5028815;28;20041;-35
2022/07/11 11:31:35;;;;;;;1.10;0.50;;;22.50;99.90;;;;;;5028481;28;20426;-35
2022/07/11 11:34:02;;;;;;;0.40;0.40;;;22.50;99.90;;;;;;5028782;28;20021;-35
2022/07/11 11:36:28;;;;;;;1.15;0.45;;;22.50;99.90;;;;;;5022617;28;20481;-35
2022/07/11 11:38:55;;;;;;;0.60;0.30;;;22.50;99.90;;;;;;5020352;28;20030;-35
2022/07/11 11:41:29;;;;;;;0.68;0.40;;;22.60;99.90;;;;;;5009781;28;20018;-35
2022/07/11 11:43:56;;;;;;;0.82;0.40;;;22.70;99.90;;;;;;5019746;28;20026;-34
2022/07/11 11:46:27;;;;;;;0.70;0.60;;;22.80;99.90;;;;;;5009649;28;20101;-34
2022/07/11 11:48:57;;;;;;;1.30;0.50;;;22.80;99.90;;;;;;5024364;28;20123;-35
2022/07/11 11:51:24;;;;;;;0.65;0.50;;;22.80;99.90;;;;;;5028289;28;20040;-35
2022/07/11 11:53:54;;;;;;;0.35;0.35;;;22.90;99.90;;;;;;5016667;28;20440;-36
2022/07/11 11:56:23;;;;;;;0.57;0.30;;;22.90;99.90;;;;;;5026747;28;20030;-35
2022/07/11 11:58:50;;;;;;;0.63;0.50;;;22.90;99.90;;;;;;5028047;28;20376;-35
2022/07/11 12:01:24;;;;;;;0.35;0.35;;;22.90;99.90;;;;;;5027876;28;20067;-35
2022/07/11 12:03:50;;;;;;;0.95;0.60;;;22.80;99.90;;;;;;5027312;28;20107;-35
2022/07/11 12:06:16;;;;;;;0.85;0.50;;;22.70;99.90;;;;;;5028423;28;20408;-35
2022/07/11 12:08:42;;;;;;;0.40;0.38;;;22.70;99.90;;;;;;5027354;28;20479;-34
2022/07/11 12:11:13;;;;;;;2.45;0.55;;;22.70;99.90;;;;;;5027774;28;20075;-35
2022/07/11 12:13:40;;;;;;;0.30;0.30;;;22.70;99.90;;;;;;5027800;28;20029;-35
2022/07/11 12:19:03;;;;;;;0.38;0.38;;;22.60;99.90;;;;;;5028611;28;20099;-36
2022/07/11 12:21:30;;;;;;;0.43;0.32;;;22.70;99.90;;;;;;5027482;28;20025;-35
2022/07/11 12:24:00;;;;;;;0.30;0.30;;;22.70;99.90;;;;;;5027258;28;20488;-35
2022/07/11 12:26:30;;;;;;;0.47;0.47;;;22.70;99.90;;;;;;5027518;28;20104;-34
2022/07/11 12:29:15;;;;;;;0.40;0.40;;;22.60;99.90;;;;;;5028165;28;20065;-36
2022/07/11 12:31:49;;;;;;;0.30;0.30;;;22.60;99.90;;;;;;5027445;28;20528;-35
2022/07/11 12:34:19;;;;;;;1.58;0.40;;;22.60;99.90;;;;;;5026143;28;20045;-35
2022/07/11 12:36:46;;;;;;;0.40;0.40;;;22.70;99.90;;;;;;5027343;28;20434;-35
2022/07/11 12:39:34;;;;;;;0.40;0.40;;;22.80;99.90;;;;;;5027532;28;20481;-36
2022/07/11 12:42:01;;;;;;;0.47;0.40;;;22.80;99.90;;;;;;5027563;28;20126;-35
2022/07/11 12:47:12;;;;;;;0.35;0.35;;;22.80;99.90;;;;;;5028310;28;20436;-36
2022/07/11 12:49:44;;;;;;;0.20;0.20;;;22.80;99.90;;;;;;5027051;28;20037;-35
2022/07/11 12:52:11;;;;;;;0.30;0.30;;;22.90;99.90;;;;;;5026601;28;20034;-35
2022/07/11 12:54:36;;;;;;;0.43;0.43;;;22.90;99.90;;;;;;5026505;28;20116;-35
2022/07/11 12:57:02;;;;;;;0.35;0.30;;;22.90;99.90;;;;;;5027251;28;20552;-36
2022/07/11 12:59:29;;;;;;;0.45;0.40;;;22.80;99.90;;;;;;5025795;28;20048;-35
2022/07/11 13:02:03;;;;;;;0.57;0.30;;;22.80;99.90;;;;;;5027068;28;20124;-35